createdAt,value
2018-04-10T00:00:23.589Z,76.46
2018-04-10T00:01:23.559Z,76.37
2018-04-10T00:02:23.558Z,76.56
2018-04-10T00:03:23.532Z,76.56
2018-04-10T00:04:23.514Z,76.75
2018-04-10T00:05:23.500Z,76.94
2018-04-10T00:06:23.485Z,77.04
2018-04-10T00:07:23.470Z,76.94
2018-04-10T00:08:23.491Z,76.75
2018-04-10T00:09:23.457Z,76.75
2018-04-10T00:10:23.417Z,77.13
2018-04-10T00:11:23.426Z,77.33
2018-04-10T00:12:23.408Z,77.90
2018-04-10T00:13:23.377Z,77.80
2018-04-10T00:14:23.357Z,77.99
2018-04-10T00:15:23.333Z,77.99
2018-04-10T00:16:23.315Z,78.19
2018-04-10T00:17:23.330Z,77.90
2018-04-10T00:18:23.288Z,77.99
2018-04-10T00:19:23.275Z,77.95
2018-04-10T00:20:23.274Z,77.67
2018-04-10T00:21:23.237Z,78.47
2018-04-10T00:22:23.246Z,78.53
2018-04-10T00:23:23.223Z,78.14
2018-04-10T00:24:23.191Z,78.53
2018-04-10T00:25:23.175Z,78.43
2018-04-10T00:26:23.160Z,78.63
2018-04-10T00:27:23.154Z,78.53
2018-04-10T00:28:23.128Z,78.72
2018-04-10T00:29:23.107Z,78.72
2018-04-10T00:30:23.107Z,78.24
2018-04-10T00:31:23.084Z,79.49
2018-04-10T00:32:23.057Z,78.91
2018-04-10T00:33:23.045Z,79.00
2018-04-10T00:34:23.016Z,79.39
2018-04-10T00:35:23.001Z,79.58
2018-04-10T00:36:23.005Z,79.87
2018-04-10T00:37:22.968Z,80.16
2018-04-10T00:38:22.989Z,79.58
2018-04-10T00:39:22.966Z,79.58
2018-04-10T00:40:22.940Z,80.16
2018-04-10T00:41:22.901Z,80.06
2018-04-10T00:42:22.896Z,80.35
2018-04-10T00:43:22.895Z,80.44
2018-04-10T00:44:22.856Z,80.35
2018-04-10T00:45:22.868Z,80.16
2018-04-10T00:46:22.816Z,80.44
2018-04-10T00:47:22.804Z,80.44
2018-04-10T00:48:22.788Z,80.35
2018-04-10T00:49:22.800Z,80.50
2018-04-10T00:50:22.760Z,80.35
2018-04-10T00:51:22.738Z,80.35
2018-04-10T00:52:22.716Z,80.35
2018-04-10T00:53:22.705Z,80.40
2018-04-10T00:54:22.712Z,79.83
2018-04-10T00:55:22.668Z,80.02
2018-04-10T00:56:22.685Z,80.59
2018-04-10T00:57:22.642Z,80.79
2018-04-10T00:58:22.628Z,80.88
2018-04-10T00:59:22.613Z,80.59
2018-04-10T01:00:22.593Z,80.79
2018-04-10T01:01:22.565Z,80.88
2018-04-10T01:02:22.550Z,80.69
2018-04-10T01:03:22.533Z,80.79
2018-04-10T01:04:22.541Z,80.79
2018-04-10T01:05:22.505Z,80.69
2018-04-10T01:06:22.508Z,80.59
2018-04-10T01:07:22.477Z,80.79
2018-04-10T01:08:22.476Z,81.45
2018-04-10T01:09:22.448Z,81.26
2018-04-10T01:10:22.457Z,80.50
2018-04-10T01:11:22.401Z,80.79
2018-04-10T01:12:22.409Z,81.07
2018-04-10T01:13:22.399Z,80.98
2018-04-10T01:14:22.399Z,80.88
2018-04-10T01:15:22.332Z,80.88
2018-04-10T01:16:22.338Z,80.59
2018-04-10T01:17:22.299Z,80.69
2018-04-10T01:18:22.297Z,80.88
2018-04-10T01:19:22.267Z,80.98
2018-04-10T01:20:22.248Z,81.36
2018-04-10T01:21:22.226Z,81.36
2018-04-10T01:22:22.218Z,81.16
2018-04-10T01:23:22.195Z,81.07
2018-04-10T01:24:22.208Z,81.07
2018-04-10T01:25:22.160Z,81.26
2018-04-10T01:26:22.171Z,81.65
2018-04-10T01:27:22.128Z,81.74
2018-04-10T01:28:22.117Z,81.84
2018-04-10T01:29:22.098Z,81.65
2018-04-10T01:30:22.078Z,81.65
2018-04-10T01:31:22.072Z,81.93
2018-04-10T01:32:22.067Z,82.03
2018-04-10T01:33:22.052Z,82.12
2018-04-10T01:34:22.033Z,82.41
2018-04-10T01:35:21.991Z,82.60
2018-04-10T01:36:22.011Z,82.12
2018-04-10T01:37:21.975Z,82.51
2018-04-10T01:38:21.948Z,82.51
2018-04-10T01:39:21.947Z,82.22
2018-04-10T01:40:21.910Z,82.51
2018-04-10T01:41:21.902Z,83.27
2018-04-10T01:42:21.881Z,82.98
2018-04-10T01:43:21.876Z,83.17
2018-04-10T01:44:21.843Z,83.17
2018-04-10T01:45:21.831Z,82.94
2018-04-10T01:46:21.800Z,83.23
2018-04-10T01:47:21.801Z,83.42
2018-04-10T01:48:21.772Z,83.42
2018-04-10T01:49:21.748Z,83.51
2018-04-10T01:50:21.740Z,83.33
2018-04-10T01:51:21.712Z,83.80
2018-04-10T01:52:21.695Z,83.61
2018-04-10T01:53:21.678Z,83.70
2018-04-10T01:54:21.667Z,83.23
2018-04-10T01:55:21.648Z,83.42
2018-04-10T01:56:21.634Z,83.42
2018-04-10T01:57:21.615Z,83.61
2018-04-10T01:58:21.599Z,84.47
2018-04-10T01:59:21.586Z,83.99
2018-04-10T02:00:21.563Z,83.80
2018-04-10T02:01:21.548Z,84.28
2018-04-10T02:02:21.535Z,84.28
2018-04-10T02:03:21.519Z,84.56
2018-04-10T02:04:21.500Z,84.95
2018-04-10T02:05:21.530Z,84.66
2018-04-10T02:06:21.457Z,84.85
2018-04-10T02:07:21.463Z,84.85
2018-04-10T02:08:21.434Z,84.47
2018-04-10T02:09:21.413Z,84.47
2018-04-10T02:10:21.422Z,84.76
2018-04-10T02:11:21.401Z,84.85
2018-04-10T02:12:21.391Z,84.76
2018-04-10T02:13:21.349Z,85.33
2018-04-10T02:14:21.316Z,85.24
2018-04-10T02:15:21.308Z,85.62
2018-04-10T02:16:21.284Z,85.48
2018-04-10T02:17:21.267Z,85.67
2018-04-10T02:18:21.268Z,85.48
2018-04-10T02:19:21.238Z,85.48
2018-04-10T02:20:21.227Z,85.14
2018-04-10T02:21:21.225Z,85.52
2018-04-10T02:22:21.182Z,85.14
2018-04-10T02:23:21.182Z,85.81
2018-04-10T02:24:21.160Z,85.29
2018-04-10T02:25:21.142Z,85.71
2018-04-10T02:26:21.112Z,86.15
2018-04-10T02:27:21.096Z,85.86
2018-04-10T02:28:21.106Z,86.19
2018-04-10T02:29:21.088Z,86.05
2018-04-10T02:30:21.045Z,86.00
2018-04-10T02:31:21.042Z,85.86
2018-04-10T02:32:21.015Z,86.05
2018-04-10T02:33:21.005Z,86.10
2018-04-10T02:34:20.993Z,85.77
2018-04-10T02:35:20.983Z,86.24
2018-04-10T02:36:20.945Z,85.96
2018-04-10T02:37:20.925Z,86.05
2018-04-10T02:38:20.939Z,86.05
2018-04-10T02:39:20.910Z,85.96
2018-04-10T02:40:20.890Z,86.19
2018-04-10T02:41:20.854Z,86.15
2018-04-10T02:42:20.841Z,86.29
2018-04-10T02:43:20.816Z,86.10
2018-04-10T02:44:20.805Z,85.67
2018-04-10T02:45:20.807Z,85.90
2018-04-10T02:46:20.773Z,86.05
2018-04-10T02:47:20.755Z,86.29
2018-04-10T02:48:20.753Z,86.15
2018-04-10T02:49:20.715Z,86.19
2018-04-10T02:50:20.705Z,86.19
2018-04-10T02:51:20.692Z,85.71
2018-04-10T02:52:20.669Z,86.24
2018-04-10T02:53:20.650Z,85.96
2018-04-10T02:54:20.636Z,86.19
2018-04-10T02:55:20.611Z,85.77
2018-04-10T02:56:20.595Z,86.34
2018-04-10T02:57:20.582Z,86.34
2018-04-10T02:58:20.559Z,86.53
2018-04-10T02:59:20.574Z,86.63
2018-04-10T03:00:20.523Z,86.43
2018-04-10T03:01:20.508Z,86.34
2018-04-10T03:02:20.513Z,86.72
2018-04-10T03:03:20.477Z,87.01
2018-04-10T03:04:20.469Z,86.82
2018-04-10T03:05:20.466Z,86.82
2018-04-10T03:06:20.438Z,86.72
2018-04-10T03:07:20.420Z,86.82
2018-04-10T03:08:20.396Z,87.10
2018-04-10T03:09:20.389Z,86.72
2018-04-10T03:10:20.355Z,87.20
2018-04-10T03:11:20.344Z,87.29
2018-04-10T03:12:20.317Z,86.82
2018-04-10T03:13:20.301Z,86.72
2018-04-10T03:14:20.282Z,86.72
2018-04-10T03:15:20.291Z,86.63
2018-04-10T03:16:20.275Z,86.82
2018-04-10T03:17:20.228Z,86.72
2018-04-10T03:18:20.245Z,87.01
2018-04-10T03:19:20.192Z,86.72
2018-04-10T03:20:20.199Z,87.20
2018-04-10T03:21:20.209Z,86.91
2018-04-10T03:22:20.171Z,86.43
2018-04-10T03:23:20.144Z,87.20
2018-04-10T03:24:20.120Z,87.20
2018-04-10T03:25:20.090Z,87.39
2018-04-10T03:26:20.085Z,87.10
2018-04-10T03:27:20.068Z,87.10
2018-04-10T03:28:20.064Z,87.20
2018-04-10T03:29:20.022Z,86.91
2018-04-10T03:30:20.006Z,87.10
2018-04-10T03:31:19.986Z,87.39
2018-04-10T03:32:19.971Z,87.68
2018-04-10T03:33:19.984Z,87.48
2018-04-10T03:34:19.963Z,87.58
2018-04-10T03:35:19.914Z,87.58
2018-04-10T03:36:19.901Z,87.58
2018-04-10T03:37:19.899Z,87.39
2018-04-10T03:38:19.885Z,87.39
2018-04-10T03:39:19.854Z,87.58
2018-04-10T03:40:19.837Z,87.77
2018-04-10T03:41:19.817Z,87.48
2018-04-10T03:42:19.806Z,87.77
2018-04-10T03:43:19.786Z,87.96
2018-04-10T03:44:19.756Z,87.39
2018-04-10T03:45:19.738Z,87.77
2018-04-10T03:46:19.731Z,87.68
2018-04-10T03:47:19.716Z,88.25
2018-04-10T03:48:19.700Z,88.15
2018-04-10T03:49:19.690Z,88.25
2018-04-10T03:50:19.668Z,88.30
2018-04-10T03:51:19.652Z,87.92
2018-04-10T03:52:19.621Z,87.87
2018-04-10T03:53:19.615Z,88.30
2018-04-10T03:54:19.589Z,88.40
2018-04-10T03:55:19.570Z,88.20
2018-04-10T03:56:19.567Z,88.20
2018-04-10T03:57:19.530Z,88.20
2018-04-10T03:58:19.519Z,88.30
2018-04-10T03:59:19.507Z,88.40
2018-04-10T04:00:19.494Z,88.11
2018-04-10T04:01:19.465Z,88.11
2018-04-10T04:02:19.442Z,87.73
2018-04-10T04:03:19.438Z,87.54
2018-04-10T04:04:19.419Z,87.63
2018-04-10T04:05:19.437Z,87.63
2018-04-10T04:06:19.384Z,88.11
2018-04-10T04:07:19.359Z,88.01
2018-04-10T04:08:19.359Z,88.01
2018-04-10T04:09:19.318Z,88.20
2018-04-10T04:10:19.307Z,88.20
2018-04-10T04:11:19.295Z,88.11
2018-04-10T04:12:19.286Z,88.20
2018-04-10T04:13:19.252Z,88.59
2018-04-10T04:14:19.241Z,89.06
2018-04-10T04:15:19.221Z,88.97
2018-04-10T04:16:19.199Z,89.06
2018-04-10T04:17:19.202Z,89.06
2018-04-10T04:18:19.164Z,88.59
2018-04-10T04:19:19.148Z,88.97
2018-04-10T04:20:19.127Z,88.97
2018-04-10T04:21:19.114Z,90.02
2018-04-10T04:22:19.099Z,89.54
2018-04-10T04:23:19.115Z,89.54
2018-04-10T04:24:19.080Z,89.73
2018-04-10T04:25:19.048Z,89.64
2018-04-10T04:26:19.036Z,89.35
2018-04-10T04:27:19.004Z,89.45
2018-04-10T04:28:19.007Z,89.73
2018-04-10T04:29:18.998Z,88.78
2018-04-10T04:30:18.961Z,89.16
2018-04-10T04:31:18.951Z,89.45
2018-04-10T04:32:18.917Z,89.25
2018-04-10T04:33:18.896Z,89.35
2018-04-10T04:34:18.889Z,89.06
2018-04-10T04:35:18.885Z,88.97
2018-04-10T04:36:18.842Z,89.06
2018-04-10T04:37:18.829Z,88.49
2018-04-10T04:38:18.832Z,88.20
2018-04-10T04:39:18.804Z,88.78
2018-04-10T04:40:18.779Z,88.78
2018-04-10T04:41:18.755Z,89.35
2018-04-10T04:42:18.745Z,89.45
2018-04-10T04:43:18.725Z,89.54
2018-04-10T04:44:18.707Z,90.02
2018-04-10T04:45:18.697Z,90.31
2018-04-10T04:46:18.684Z,89.54
2018-04-10T04:47:18.649Z,90.50
2018-04-10T04:48:18.640Z,90.69
2018-04-10T04:49:18.619Z,90.36
2018-04-10T04:50:18.596Z,90.69
2018-04-10T04:51:18.585Z,90.97
2018-04-10T04:52:18.562Z,90.93
2018-04-10T04:53:18.578Z,90.69
2018-04-10T04:54:18.529Z,90.02
2018-04-10T04:55:18.507Z,90.31
2018-04-10T04:56:18.491Z,89.92
2018-04-10T04:57:18.491Z,89.92
2018-04-10T04:58:18.459Z,90.45
2018-04-10T04:59:18.438Z,90.02
2018-04-10T05:00:18.430Z,89.50
2018-04-10T05:01:18.402Z,90.45
2018-04-10T05:02:18.387Z,90.45
2018-04-10T05:03:18.370Z,90.64
2018-04-10T05:04:18.381Z,89.97
2018-04-10T05:05:18.355Z,89.69
2018-04-10T05:06:18.326Z,89.50
2018-04-10T05:07:18.300Z,90.36
2018-04-10T05:08:18.279Z,90.17
2018-04-10T05:09:18.264Z,90.97
2018-04-10T05:10:18.241Z,91.02
2018-04-10T05:11:18.225Z,91.07
2018-04-10T05:12:18.203Z,90.45
2018-04-10T05:13:18.212Z,91.02
2018-04-10T05:14:18.176Z,90.83
2018-04-10T05:15:18.155Z,91.55
2018-04-10T05:16:18.148Z,91.64
2018-04-10T05:17:18.119Z,91.55
2018-04-10T05:18:18.127Z,90.78
2018-04-10T05:19:18.083Z,90.97
2018-04-10T05:20:18.068Z,90.88
2018-04-10T05:21:18.055Z,91.16
2018-04-10T05:22:18.027Z,90.69
2018-04-10T05:23:18.011Z,90.21
2018-04-10T05:24:17.992Z,90.50
2018-04-10T05:25:17.972Z,90.59
2018-04-10T05:26:17.957Z,90.69
2018-04-10T05:27:17.950Z,90.02
2018-04-10T05:28:17.921Z,89.64
2018-04-10T05:29:17.900Z,89.54
2018-04-10T05:30:17.888Z,89.54
2018-04-10T05:31:17.870Z,89.73
2018-04-10T05:32:17.846Z,89.45
2018-04-10T05:33:17.833Z,89.73
2018-04-10T05:34:17.822Z,89.73
2018-04-10T05:35:17.793Z,89.45
2018-04-10T05:36:17.778Z,89.35
2018-04-10T05:37:17.758Z,88.97
2018-04-10T05:38:17.822Z,89.25
2018-04-10T05:39:17.732Z,89.16
2018-04-10T05:40:17.717Z,89.25
2018-04-10T05:41:17.778Z,89.16
2018-04-10T05:42:17.696Z,89.20
2018-04-10T05:43:17.655Z,89.01
2018-04-10T05:44:17.644Z,89.11
2018-04-10T05:45:17.626Z,89.39
2018-04-10T05:46:17.603Z,88.63
2018-04-10T05:47:17.591Z,88.63
2018-04-10T05:48:17.581Z,88.15
2018-04-10T05:49:17.566Z,88.25
2018-04-10T05:50:17.539Z,88.44
2018-04-10T05:51:17.522Z,87.58
2018-04-10T05:52:17.513Z,88.25
2018-04-10T05:53:17.493Z,88.15
2018-04-10T05:54:17.471Z,87.96
2018-04-10T05:55:17.449Z,87.39
2018-04-10T05:56:17.427Z,87.68
2018-04-10T05:57:17.413Z,87.43
2018-04-10T05:58:17.401Z,87.53
2018-04-10T05:59:17.379Z,87.05
2018-04-10T06:00:17.366Z,87.15
2018-04-10T06:01:17.449Z,86.96
2018-04-10T06:02:17.330Z,86.67
2018-04-10T06:03:17.469Z,86.76
2018-04-10T06:04:17.320Z,86.47
2018-04-10T06:05:17.280Z,86.47
2018-04-10T06:06:17.260Z,86.47
2018-04-10T06:07:17.269Z,86.67
2018-04-10T06:08:17.254Z,86.57
2018-04-10T06:09:17.248Z,86.57
2018-04-10T06:10:17.195Z,85.71
2018-04-10T06:11:17.184Z,86.29
2018-04-10T06:12:17.161Z,85.24
2018-04-10T06:13:17.159Z,85.62
2018-04-10T06:14:17.140Z,85.90
2018-04-10T06:15:17.109Z,85.90
2018-04-10T06:16:17.095Z,85.47
2018-04-10T06:17:17.107Z,85.14
2018-04-10T06:18:17.076Z,84.80
2018-04-10T06:19:17.048Z,84.70
2018-04-10T06:20:17.043Z,85.28
2018-04-10T06:21:17.014Z,84.70
2018-04-10T06:22:17.020Z,84.70
2018-04-10T06:23:16.981Z,84.89
2018-04-10T06:24:16.974Z,84.42
2018-04-10T06:25:16.946Z,84.61
2018-04-10T06:26:16.940Z,84.61
2018-04-10T06:27:16.920Z,84.32
2018-04-10T06:28:16.897Z,84.23
2018-04-10T06:29:16.887Z,84.23
2018-04-10T06:30:16.876Z,84.42
2018-04-10T06:31:16.862Z,84.03
2018-04-10T06:32:16.842Z,84.13
2018-04-10T06:33:16.820Z,83.84
2018-04-10T06:34:16.807Z,83.75
2018-04-10T06:35:17.087Z,83.17
2018-04-10T06:36:16.778Z,82.89
2018-04-10T06:37:16.780Z,83.27
2018-04-10T06:38:16.767Z,82.60
2018-04-10T06:39:16.722Z,82.41
2018-04-10T06:40:16.705Z,82.51
2018-04-10T06:41:16.690Z,82.60
2018-04-10T06:42:16.682Z,81.68
2018-04-10T06:43:16.656Z,82.26
2018-04-10T06:44:16.654Z,82.31
2018-04-10T06:45:16.628Z,81.97
2018-04-10T06:46:16.616Z,81.78
2018-04-10T06:47:16.616Z,82.17
2018-04-10T06:48:16.599Z,81.88
2018-04-10T06:49:16.585Z,82.17
2018-04-10T06:50:16.547Z,81.68
2018-04-10T06:51:16.550Z,81.88
2018-04-10T06:52:16.511Z,81.21
2018-04-10T06:53:16.503Z,81.68
2018-04-10T06:54:16.488Z,81.21
2018-04-10T06:55:16.473Z,81.40
2018-04-10T06:56:16.456Z,80.73
2018-04-10T06:57:16.463Z,80.87
2018-04-10T06:58:16.432Z,81.15
2018-04-10T06:59:16.417Z,80.87
2018-04-10T07:00:16.397Z,80.19
2018-04-10T07:01:16.376Z,80.29
2018-04-10T07:02:16.356Z,78.66
2018-04-10T07:03:16.358Z,78.57
2018-04-10T07:04:16.335Z,78.76
2018-04-10T07:05:16.315Z,78.61
2018-04-10T07:06:16.306Z,78.51
2018-04-10T07:07:16.281Z,77.94
2018-04-10T07:08:16.313Z,77.65
2018-04-10T07:09:16.249Z,77.21
2018-04-10T07:10:16.256Z,76.54
2018-04-10T07:11:16.230Z,76.15
2018-04-10T07:12:16.204Z,75.48
2018-04-10T07:13:16.200Z,75.48
2018-04-10T07:15:38.246Z,74.82
2018-04-10T07:16:38.227Z,74.57
2018-04-10T07:18:32.609Z,73.61
2018-04-10T07:19:32.576Z,73.41
2018-04-10T07:20:32.548Z,72.74
2018-04-10T07:21:32.593Z,72.84
2018-04-10T07:22:32.529Z,73.41
2018-04-10T07:23:32.514Z,73.13
2018-04-10T07:24:32.496Z,73.45
2018-04-10T07:25:32.482Z,72.45
2018-04-10T07:26:32.479Z,72.30
2018-04-10T07:27:32.484Z,72.30
2018-04-10T07:28:32.444Z,72.20
2018-04-10T07:29:32.436Z,72.11
2018-04-10T07:30:32.421Z,71.34
2018-04-10T07:31:32.446Z,72.49
2018-04-10T07:32:32.410Z,72.68
2018-04-10T07:33:32.396Z,72.01
2018-04-10T07:34:32.376Z,71.05
2018-04-10T07:35:32.359Z,70.86
2018-04-10T07:36:32.332Z,71.25
2018-04-10T07:37:32.326Z,70.67
2018-04-10T07:38:32.312Z,71.34
2018-04-10T07:39:32.315Z,71.34
2018-04-10T07:40:32.320Z,70.96
2018-04-10T07:41:32.280Z,71.05
2018-04-10T07:42:32.285Z,70.29
2018-04-10T07:43:32.250Z,71.05
2018-04-10T07:44:32.226Z,70.96
2018-04-10T07:45:32.243Z,71.25
2018-04-10T07:46:32.204Z,70.86
2018-04-10T07:47:32.189Z,70.09
2018-04-10T07:48:32.182Z,69.71
2018-04-10T07:49:32.180Z,70.19
2018-04-10T07:50:32.161Z,70.86
2018-04-10T07:51:32.158Z,70.76
2018-04-10T07:52:32.118Z,70.86
2018-04-10T07:53:32.105Z,70.29
2018-04-10T07:54:32.108Z,70.29
2018-04-10T07:55:32.082Z,70.38
2018-04-10T07:56:32.081Z,69.74
2018-04-10T07:57:32.081Z,70.61
2018-04-10T07:58:32.063Z,68.95
2018-04-10T07:59:32.023Z,69.23
2018-04-10T08:00:32.007Z,69.13
2018-04-10T08:01:31.995Z,68.46
2018-04-10T08:02:31.986Z,69.23
2018-04-10T08:03:31.990Z,68.56
2018-04-10T08:04:31.980Z,68.08
2018-04-10T08:05:31.964Z,67.99
2018-04-10T08:06:31.943Z,68.75
2018-04-10T08:07:31.936Z,67.79
2018-04-10T08:08:31.925Z,67.12
2018-04-10T08:09:31.916Z,66.93
2018-04-10T08:10:31.903Z,67.25
2018-04-10T08:11:31.855Z,66.16
2018-04-10T08:12:31.865Z,66.64
2018-04-10T08:14:55.030Z,66.55
2018-04-10T08:15:55.010Z,65.78
2018-04-10T08:16:54.997Z,65.97
2018-04-10T08:17:54.991Z,65.68
2018-04-10T08:18:54.983Z,65.72
2018-04-10T08:19:54.953Z,66.29
2018-04-10T08:20:54.958Z,66.49
2018-04-10T08:21:54.935Z,66.29
2018-04-10T08:22:54.902Z,65.43
2018-04-10T08:23:54.923Z,65.27
2018-04-10T08:24:54.885Z,65.36
2018-04-10T08:25:54.874Z,65.17
2018-04-10T08:26:54.853Z,65.17
2018-04-10T08:27:54.847Z,64.89
2018-04-10T08:28:54.851Z,64.50
2018-04-10T08:29:54.811Z,64.92
2018-04-10T08:30:54.801Z,64.15
2018-04-10T08:31:54.785Z,63.45
2018-04-10T08:32:54.770Z,63.96
2018-04-10T08:33:54.793Z,64.34
2018-04-10T08:34:54.743Z,63.25
2018-04-10T08:35:54.737Z,63.54
2018-04-10T08:36:54.739Z,62.96
2018-04-10T08:37:54.775Z,63.45
2018-04-10T08:38:54.705Z,64.02
2018-04-10T08:39:54.734Z,63.54
2018-04-10T08:40:54.690Z,63.83
2018-04-10T08:41:54.665Z,64.02
2018-04-10T08:42:54.642Z,63.54
2018-04-10T08:43:54.622Z,63.64
2018-04-10T08:44:54.630Z,63.83
2018-04-10T08:45:54.599Z,63.73
2018-04-10T08:46:54.609Z,64.50
2018-04-10T08:47:54.578Z,63.54
2018-04-10T08:48:54.558Z,64.02
2018-04-10T08:49:54.547Z,64.40
2018-04-10T08:50:54.551Z,64.02
2018-04-10T08:51:54.701Z,63.45
2018-04-10T08:52:54.519Z,64.12
2018-04-10T08:53:54.509Z,63.54
2018-04-10T08:54:54.491Z,63.35
2018-04-10T08:55:54.544Z,63.35
2018-04-10T08:56:54.465Z,64.31
2018-04-10T08:57:54.470Z,63.48
2018-04-10T08:58:54.428Z,63.67
2018-04-10T08:59:54.420Z,62.81
2018-04-10T09:00:54.442Z,62.81
2018-04-10T09:01:54.424Z,62.32
2018-04-10T09:02:54.425Z,63.19
2018-04-10T09:03:54.369Z,63.57
2018-04-10T09:04:54.395Z,64.15
2018-04-10T09:05:54.343Z,63.60
2018-04-10T09:06:54.360Z,62.45
2018-04-10T09:07:54.326Z,63.12
2018-04-10T09:08:54.310Z,62.35
2018-04-10T09:09:54.338Z,62.45
2018-04-10T09:10:54.283Z,62.07
2018-04-10T09:11:54.268Z,61.11
2018-04-10T09:12:54.268Z,61.58
2018-04-10T09:13:54.268Z,61.20
2018-04-10T09:14:54.238Z,59.95
2018-04-10T09:15:54.248Z,61.58
2018-04-10T09:16:54.241Z,61.20
2018-04-10T09:17:54.239Z,61.87
2018-04-10T09:18:54.190Z,61.68
2018-04-10T09:19:54.195Z,62.35
2018-04-10T09:20:54.164Z,62.35
2018-04-10T09:21:54.152Z,62.10
2018-04-10T09:22:54.146Z,61.52
2018-04-10T09:23:54.131Z,60.94
2018-04-10T09:24:54.140Z,59.99
2018-04-10T09:25:54.142Z,59.31
2018-04-10T09:26:54.121Z,59.22
2018-04-10T09:27:54.113Z,60.27
2018-04-10T09:28:54.072Z,59.60
2018-04-10T09:29:54.064Z,59.60
2018-04-10T09:30:54.095Z,59.53
2018-04-10T09:31:54.041Z,59.24
2018-04-10T09:32:54.028Z,58.57
2018-04-10T09:33:54.013Z,57.87
2018-04-10T09:34:54.015Z,57.58
2018-04-10T09:35:54.008Z,57.58
2018-04-10T09:36:54.010Z,58.35
2018-04-10T09:37:53.988Z,57.39
2018-04-10T09:38:53.960Z,57.58
2018-04-10T09:39:53.971Z,58.51
2018-04-10T09:40:53.959Z,58.61
2018-04-10T09:41:53.961Z,58.42
2018-04-10T09:42:53.946Z,57.84
2018-04-10T09:43:53.901Z,58.64
2018-04-10T09:44:53.916Z,58.15
2018-04-10T09:45:53.927Z,57.68
2018-04-10T09:46:53.867Z,57.58
2018-04-10T09:47:53.877Z,56.62
2018-04-10T09:48:53.888Z,55.18
2018-04-10T09:49:53.837Z,54.60
2018-04-10T09:50:53.826Z,54.02
2018-04-10T09:51:53.860Z,54.77
2018-04-10T09:52:53.824Z,55.63
2018-04-10T09:53:53.798Z,55.53
2018-04-10T09:54:53.804Z,56.21
2018-04-10T09:55:53.809Z,56.52
2018-04-10T09:56:53.775Z,57.10
2018-04-10T09:57:53.752Z,56.62
2018-04-10T09:58:53.785Z,55.66
2018-04-10T09:59:53.730Z,57.29
2018-04-10T10:00:53.719Z,57.97
2018-04-10T10:01:53.710Z,57.70
2018-04-10T10:02:53.699Z,57.80
2018-04-10T10:03:53.718Z,56.84
2018-04-10T10:04:53.675Z,55.30
2018-04-10T10:05:53.665Z,56.07
2018-04-10T10:06:53.676Z,55.20
2018-04-10T10:07:53.652Z,55.23
2018-04-10T10:08:53.627Z,56.45
2018-04-10T10:09:53.649Z,54.43
2018-04-10T10:10:53.626Z,53.86
2018-04-10T10:11:53.609Z,54.53
2018-04-10T10:12:53.640Z,55.20
2018-04-10T10:13:53.579Z,55.30
2018-04-10T10:14:53.568Z,54.91
2018-04-10T10:15:53.558Z,54.82
2018-04-10T10:16:53.550Z,52.03
2018-04-10T10:17:53.539Z,52.42
2018-04-10T10:18:53.528Z,52.77
2018-04-10T10:19:53.522Z,54.22
2018-04-10T10:20:53.515Z,54.31
2018-04-10T10:21:53.510Z,54.12
2018-04-10T10:22:53.488Z,53.06
2018-04-10T10:23:53.476Z,52.87
2018-04-10T10:24:53.484Z,53.35
2018-04-10T10:25:53.494Z,54.89
2018-04-10T10:26:53.446Z,55.37
2018-04-10T10:27:53.434Z,54.50
2018-04-10T10:28:53.447Z,53.92
2018-04-10T10:29:53.407Z,53.57
2018-04-10T10:30:53.405Z,53.54
2018-04-10T10:31:53.410Z,52.99
2018-04-10T10:32:53.415Z,52.89
2018-04-10T10:33:53.381Z,53.28
2018-04-10T10:34:53.382Z,53.47
2018-04-10T10:35:53.376Z,53.09
2018-04-10T10:36:53.332Z,52.51
2018-04-10T10:37:53.347Z,52.61
2018-04-10T10:38:53.308Z,52.61
2018-04-10T10:39:53.299Z,52.83
2018-04-10T10:40:53.295Z,52.54
2018-04-10T10:41:53.302Z,52.63
2018-04-10T10:42:53.275Z,52.73
2018-04-10T10:43:53.269Z,52.34
2018-04-10T10:44:53.246Z,52.32
2018-04-10T10:45:53.278Z,52.32
2018-04-10T10:46:53.245Z,53.19
2018-04-10T10:47:53.221Z,54.17
2018-04-10T10:48:53.245Z,54.08
2018-04-10T10:49:53.198Z,53.69
2018-04-10T10:50:53.204Z,53.50
2018-04-10T10:51:53.216Z,52.34
2018-04-10T10:52:53.235Z,53.43
2018-04-10T10:53:53.212Z,51.67
2018-04-10T10:54:53.179Z,51.19
2018-04-10T10:55:53.201Z,51.19
2018-04-10T10:56:53.172Z,50.51
2018-04-10T10:57:53.168Z,50.51
2018-04-10T10:58:53.160Z,50.73
2018-04-10T10:59:53.157Z,49.77
2018-04-10T11:00:53.166Z,50.15
2018-04-10T11:01:53.098Z,51.31
2018-04-10T11:02:53.062Z,49.68
2018-04-10T11:03:53.082Z,50.23
2018-04-10T11:04:53.045Z,49.38
2018-04-10T11:05:53.056Z,50.32
2018-04-10T11:06:53.056Z,50.15
2018-04-10T11:07:53.104Z,51.31
2018-04-10T11:08:53.028Z,50.63
2018-04-10T11:09:52.998Z,50.63
2018-04-10T11:10:53.006Z,50.25
2018-04-10T11:11:52.991Z,49.77
2018-04-10T11:12:53.027Z,50.15
2018-04-10T11:13:52.965Z,49.48
2018-04-10T11:16:15.025Z,50.06
2018-04-10T11:17:14.996Z,49.77
2018-04-10T11:19:09.406Z,48.33
2018-04-10T11:20:09.389Z,48.59
2018-04-10T11:21:09.349Z,49.94
2018-04-10T11:22:09.348Z,49.17
2018-04-10T11:23:09.336Z,49.94
2018-04-10T11:24:09.364Z,49.55
2018-04-10T11:25:09.312Z,50.73
2018-04-10T11:26:09.316Z,50.83
2018-04-10T11:27:09.291Z,49.19
2018-04-10T11:28:09.283Z,48.03
2018-04-10T11:29:09.297Z,48.03
2018-04-10T11:30:09.263Z,48.06
2018-04-10T11:31:09.271Z,47.87
2018-04-10T11:32:09.240Z,49.99
2018-04-10T11:33:09.244Z,49.22
2018-04-10T11:34:09.222Z,48.64
2018-04-10T11:35:09.223Z,49.05
2018-04-10T11:36:09.241Z,48.44
2018-04-10T11:37:09.212Z,48.25
2018-04-10T11:38:09.179Z,47.97
2018-04-10T11:39:09.224Z,47.49
2018-04-10T11:40:09.162Z,48.74
2018-04-10T11:41:09.155Z,49.22
2018-04-10T11:42:09.186Z,48.83
2018-04-10T11:43:09.160Z,48.35
2018-04-10T11:44:09.130Z,47.87
2018-04-10T11:45:09.122Z,48.54
2018-04-10T11:46:09.120Z,48.74
2018-04-10T11:47:09.116Z,48.35
2018-04-10T11:48:09.093Z,48.54
2018-04-10T11:49:09.101Z,48.74
2018-04-10T11:50:09.102Z,49.12
2018-04-10T11:51:09.067Z,48.44
2018-04-10T11:52:09.054Z,48.93
2018-04-10T11:53:09.055Z,47.58
2018-04-10T11:54:09.058Z,48.16
2018-04-10T11:55:09.020Z,47.19
2018-04-10T11:56:09.023Z,47.58
2018-04-10T11:57:09.038Z,47.97
2018-04-10T11:58:08.991Z,48.06
2018-04-10T11:59:09.036Z,48.35
2018-04-10T12:00:09.013Z,49.02
2018-04-10T12:01:09.015Z,48.66
2018-04-10T12:02:08.993Z,47.70
2018-04-10T12:03:08.951Z,47.58
2018-04-10T12:04:08.958Z,48.08
2018-04-10T12:05:08.931Z,49.24
2018-04-10T12:06:08.930Z,48.66
2018-04-10T12:07:08.948Z,48.38
2018-04-10T12:08:08.916Z,47.39
2018-04-10T12:09:08.918Z,47.99
2018-04-10T12:10:08.880Z,48.95
2018-04-10T12:11:08.879Z,49.43
2018-04-10T12:12:08.875Z,47.99
2018-04-10T12:13:08.859Z,47.60
2018-04-10T12:14:08.947Z,47.60
2018-04-10T12:15:08.859Z,47.80
2018-04-10T12:16:08.872Z,47.99
2018-04-10T12:17:08.822Z,47.70
2018-04-10T12:18:08.814Z,47.41
2018-04-10T12:19:08.923Z,47.22
2018-04-10T12:20:08.799Z,48.08
2018-04-10T12:21:08.801Z,48.08
2018-04-10T12:22:08.779Z,48.38
2018-04-10T12:23:08.831Z,47.99
2018-04-10T12:24:08.765Z,48.08
2018-04-10T12:25:08.753Z,48.57
2018-04-10T12:26:08.870Z,47.99
2018-04-10T12:27:08.747Z,47.89
2018-04-10T12:28:08.848Z,47.41
2018-04-10T12:29:08.714Z,48.18
2018-04-10T12:30:08.706Z,48.08
2018-04-10T12:31:08.694Z,48.44
2018-04-10T12:32:08.739Z,48.76
2018-04-10T12:33:08.723Z,48.76
2018-04-10T12:34:08.670Z,48.86
2018-04-10T12:35:08.683Z,47.60
2018-04-10T12:36:08.682Z,48.06
2018-04-10T12:37:08.647Z,48.76
2018-04-10T12:38:08.718Z,47.60
2018-04-10T12:39:08.692Z,48.06
2018-04-10T12:40:08.643Z,47.97
2018-04-10T12:41:08.627Z,48.64
2018-04-10T12:42:08.602Z,49.41
2018-04-10T12:43:08.668Z,48.83
2018-04-10T12:44:08.601Z,48.74
2018-04-10T12:45:08.576Z,48.64
2018-04-10T12:46:08.568Z,49.22
2018-04-10T12:47:08.555Z,49.02
2018-04-10T12:48:08.559Z,48.83
2018-04-10T12:49:08.533Z,49.22
2018-04-10T12:50:08.560Z,48.38
2018-04-10T12:51:08.517Z,47.70
2018-04-10T12:52:08.509Z,48.18
2018-04-10T12:53:08.502Z,48.38
2018-04-10T12:54:08.524Z,48.06
2018-04-10T12:55:08.504Z,47.99
2018-04-10T12:56:08.495Z,47.60
2018-04-10T12:57:08.506Z,48.76
2018-04-10T12:58:08.459Z,48.66